sensor_id;sensor_type;location;lat;lon;timestamp;pressure;altitude;pressure_sealevel;temperature;humidity
2036;BME280;23642;42.658;23.350;2023-07-02T00:00:11;51323.44;;;-146.31;97.06
2036;BME280;23642;42.658;23.350;2023-07-02T00:02:38;51339.94;;;-146.31;98.28
2036;BME280;23642;42.658;23.350;2023-07-02T00:05:07;51286.31;;;-146.31;99.38
2036;BME280;23642;42.658;23.350;2023-07-02T00:07:35;51251.22;;;-146.31;100.00
2036;BME280;23642;42.658;23.350;2023-07-02T00:10:05;51164.59;;;-146.31;100.00
2036;BME280;23642;42.658;23.350;2023-07-02T00:12:33;51096.53;;;-146.31;100.00
2036;BME280;23642;42.658;23.350;2023-07-02T00:15:00;51055.25;;;-146.31;100.00
2036;BME280;23642;42.658;23.350;2023-07-02T00:17:27;51005.75;;;-146.31;100.00
2036;BME280;23642;42.658;23.350;2023-07-02T00:19:55;50898.50;;;-146.31;100.00
2036;BME280;23642;42.658;23.350;2023-07-02T00:22:33;50766.50;;;-146.31;100.00
2036;BME280;23642;42.658;23.350;2023-07-02T00:25:02;50787.13;;;-146.31;100.00
2036;BME280;23642;42.658;23.350;2023-07-02T00:27:29;50752.06;;;-146.31;100.00
2036;BME280;23642;42.658;23.350;2023-07-02T00:29:56;50661.31;;;-146.31;100.00
2036;BME280;23642;42.658;23.350;2023-07-02T00:33:10;50576.75;;;-146.31;100.00
2036;BME280;23642;42.658;23.350;2023-07-02T00:38:51;50395.25;;;-146.31;100.00
2036;BME280;23642;42.658;23.350;2023-07-02T00:41:20;50331.31;;;-146.31;100.00
2036;BME280;23642;42.658;23.350;2023-07-02T00:43:48;50378.75;;;-146.31;100.00
2036;BME280;23642;42.658;23.350;2023-07-02T00:46:16;50339.56;;;-146.31;100.00
2036;BME280;23642;42.658;23.350;2023-07-02T00:48:46;50450.94;;;-146.31;100.00
2036;BME280;23642;42.658;23.350;2023-07-02T00:51:17;50457.13;;;-146.31;100.00
2036;BME280;23642;42.658;23.350;2023-07-02T00:53:45;50432.38;;;-146.31;100.00
2036;BME280;23642;42.658;23.350;2023-07-02T00:56:14;50370.50;;;-146.31;100.00
2036;BME280;23642;42.658;23.350;2023-07-02T00:58:43;50347.81;;;-146.31;100.00
2036;BME280;23642;42.658;23.350;2023-07-02T01:01:17;50366.38;;;-146.31;100.00
2036;BME280;23642;42.658;23.350;2023-07-02T01:03:52;50428.25;;;-146.31;100.00
2036;BME280;23642;42.658;23.350;2023-07-02T01:06:23;50455.06;;;-146.31;100.00
2036;BME280;23642;42.658;23.350;2023-07-02T01:09:00;50446.81;;;-146.31;100.00
2036;BME280;23642;42.658;23.350;2023-07-02T01:11:32;50477.75;;;-146.31;100.00
2036;BME280;23642;42.658;23.350;2023-07-02T01:14:04;50426.19;;;-146.31;100.00
2036;BME280;23642;42.658;23.350;2023-07-02T01:16:32;50370.50;;;-146.31;100.00
2036;BME280;23642;42.658;23.350;2023-07-02T01:19:15;50393.19;;;-146.31;100.00
2036;BME280;23642;42.658;23.350;2023-07-02T01:21:49;50395.25;;;-146.31;100.00
2036;BME280;23642;42.658;23.350;2023-07-02T01:24:19;50397.31;;;-146.31;100.00
2036;BME280;23642;42.658;23.350;2023-07-02T01:26:49;50411.75;;;-146.31;100.00
2036;BME280;23642;42.658;23.350;2023-07-02T01:29:32;50420.00;;;-146.31;100.00
2036;BME280;23642;42.658;23.350;2023-07-02T01:32:02;50399.38;;;-146.31;100.00
2036;BME280;23642;42.658;23.350;2023-07-02T01:34:29;50387.00;;;-146.31;100.00
2036;BME280;23642;42.658;23.350;2023-07-02T01:36:59;50376.69;;;-146.31;100.00
2036;BME280;23642;42.658;23.350;2023-07-02T01:39:26;50401.44;;;-146.31;100.00
2036;BME280;23642;42.658;23.350;2023-07-02T01:41:55;50370.50;;;-146.31;100.00
2036;BME280;23642;42.658;23.350;2023-07-02T01:44:22;50333.38;;;-146.31;100.00
2036;BME280;23642;42.658;23.350;2023-07-02T01:46:49;50321.00;;;-146.31;100.00
2036;BME280;23642;42.658;23.350;2023-07-02T01:49:17;50279.75;;;-146.31;100.00
2036;BME280;23642;42.658;23.350;2023-07-02T01:51:49;50151.91;;;-146.31;100.00
2036;BME280;23642;42.658;23.350;2023-07-02T01:54:25;50094.16;;;-146.31;100.00
2036;BME280;23642;42.658;23.350;2023-07-02T01:56:55;50073.53;;;-146.31;100.00
2036;BME280;23642;42.658;23.350;2023-07-02T01:59:23;50019.91;;;-146.31;100.00
2036;BME280;23642;42.658;23.350;2023-07-02T02:01:51;49962.19;;;-146.31;100.00
2036;BME280;23642;42.658;23.350;2023-07-02T02:04:18;49916.81;;;-146.31;100.00
2036;BME280;23642;42.658;23.350;2023-07-02T02:06:46;49764.22;;;-146.31;100.00
2036;BME280;23642;42.658;23.350;2023-07-02T02:09:12;49498.22;;;-146.31;100.00
2036;BME280;23642;42.658;23.350;2023-07-02T02:11:44;49153.94;;;-146.31;100.00
2036;BME280;23642;42.658;23.350;2023-07-02T02:14:11;48869.44;;;-146.31;100.00
2036;BME280;23642;42.658;23.350;2023-07-02T02:16:38;48663.31;;;-146.31;100.00
2036;BME280;23642;42.658;23.350;2023-07-02T02:19:24;48329.38;;;-146.31;100.00
2036;BME280;23642;42.658;23.350;2023-07-02T02:21:51;48172.75;;;-146.31;100.00
2036;BME280;23642;42.658;23.350;2023-07-02T02:24:18;47904.81;;;-146.31;100.00
2036;BME280;23642;42.658;23.350;2023-07-02T02:26:46;47628.69;;;-146.31;100.00
2036;BME280;23642;42.658;23.350;2023-07-02T02:29:13;47634.88;;;-146.31;100.00
2036;BME280;23642;42.658;23.350;2023-07-02T02:32:04;47443.22;;;-146.31;100.00
2036;BME280;23642;42.658;23.350;2023-07-02T02:34:32;47397.91;;;-146.31;100.00
2036;BME280;23642;42.658;23.350;2023-07-02T02:36:59;47138.28;;;-146.31;100.00
2036;BME280;23642;42.658;23.350;2023-07-02T02:39:27;46837.47;;;-146.31;100.00
2036;BME280;23642;42.658;23.350;2023-07-02T02:41:56;46645.88;;;-146.31;100.00
2036;BME280;23642;42.658;23.350;2023-07-02T02:44:23;46388.38;;;-146.31;100.00
2036;BME280;23642;42.658;23.350;2023-07-02T02:46:50;46266.84;;;-146.31;100.00
2036;BME280;23642;42.658;23.350;2023-07-02T02:49:30;46248.31;;;-146.31;100.00
2036;BME280;23642;42.658;23.350;2023-07-02T02:51:57;46005.25;;;-146.31;100.00
2036;BME280;23642;42.658;23.350;2023-07-02T02:54:27;46034.09;;;-146.31;100.00
2036;BME280;23642;42.658;23.350;2023-07-02T02:56:55;46087.66;;;-146.31;100.00
2036;BME280;23642;42.658;23.350;2023-07-02T02:59:22;45943.47;;;-146.31;100.00
2036;BME280;23642;42.658;23.350;2023-07-02T03:01:49;45999.09;;;-146.31;100.00
2036;BME280;23642;42.658;23.350;2023-07-02T03:04:17;46178.28;;;-146.31;100.00
2036;BME280;23642;42.658;23.350;2023-07-02T03:06:49;46534.63;;;-146.31;100.00
2036;BME280;23642;42.658;23.350;2023-07-02T03:09:17;46458.44;;;-146.31;100.00
2036;BME280;23642;42.658;23.350;2023-07-02T03:11:45;46295.69;;;-146.31;100.00
2036;BME280;23642;42.658;23.350;2023-07-02T03:14:14;46229.78;;;-146.31;100.00
2036;BME280;23642;42.658;23.350;2023-07-02T03:16:43;46516.09;;;-146.31;100.00
2036;BME280;23642;42.658;23.350;2023-07-02T03:19:10;46623.22;;;-146.31;100.00
2036;BME280;23642;42.658;23.350;2023-07-02T03:21:41;46582.03;;;-146.31;100.00
2036;BME280;23642;42.658;23.350;2023-07-02T03:24:08;46462.53;;;-146.31;100.00
2036;BME280;23642;42.658;23.350;2023-07-02T03:26:37;46452.25;;;-146.31;100.00
2036;BME280;23642;42.658;23.350;2023-07-02T03:29:07;46559.38;;;-146.31;100.00
2036;BME280;23642;42.658;23.350;2023-07-02T03:31:38;46757.13;;;-146.31;100.00
2036;BME280;23642;42.658;23.350;2023-07-02T03:34:07;46804.50;;;-146.31;100.00
2036;BME280;23642;42.658;23.350;2023-07-02T03:36:35;46886.91;;;-146.31;100.00
2036;BME280;23642;42.658;23.350;2023-07-02T03:39:05;47010.53;;;-146.31;100.00
2036;BME280;23642;42.658;23.350;2023-07-02T03:41:37;47134.16;;;-146.31;100.00
2036;BME280;23642;42.658;23.350;2023-07-02T03:44:04;47185.66;;;-146.31;100.00
2036;BME280;23642;42.658;23.350;2023-07-02T03:46:35;47352.56;;;-146.31;100.00
2036;BME280;23642;42.658;23.350;2023-07-02T03:49:17;47424.69;;;-146.31;100.00
2036;BME280;23642;42.658;23.350;2023-07-02T03:51:57;47356.69;;;-146.31;100.00
2036;BME280;23642;42.658;23.350;2023-07-02T03:54:25;47426.75;;;-146.31;100.00
2036;BME280;23642;42.658;23.350;2023-07-02T03:56:52;47486.50;;;-146.31;100.00
2036;BME280;23642;42.658;23.350;2023-07-02T03:59:19;47591.59;;;-146.31;100.00
2036;BME280;23642;42.658;23.350;2023-07-02T04:01:51;47694.63;;;-146.31;100.00
2036;BME280;23642;42.658;23.350;2023-07-02T04:04:21;47884.22;;;-146.31;100.00
2036;BME280;23642;42.658;23.350;2023-07-02T04:06:51;47954.28;;;-146.31;100.00
2036;BME280;23642;42.658;23.350;2023-07-02T04:09:18;47816.22;;;-146.31;100.00
2036;BME280;23642;42.658;23.350;2023-07-02T04:11:48;47803.84;;;-146.31;100.00
2036;BME280;23642;42.658;23.350;2023-07-02T04:14:17;47888.34;;;-146.31;100.00
2036;BME280;23642;42.658;23.350;2023-07-02T04:16:51;47820.34;;;-146.31;100.00
2036;BME280;23642;42.658;23.350;2023-07-02T04:19:19;47818.28;;;-146.31;100.00
2036;BME280;23642;42.658;23.350;2023-07-02T04:22:06;47791.47;;;-146.31;100.00
2036;BME280;23642;42.658;23.350;2023-07-02T04:24:53;47793.53;;;-146.31;100.00
2036;BME280;23642;42.658;23.350;2023-07-02T04:27:28;48001.69;;;-146.31;100.00
2036;BME280;23642;42.658;23.350;2023-07-02T04:30:07;48102.66;;;-146.31;100.00
2036;BME280;23642;42.658;23.350;2023-07-02T04:32:37;47937.81;;;-146.31;100.00
2036;BME280;23642;42.658;23.350;2023-07-02T04:35:05;47853.31;;;-146.31;100.00
2036;BME280;23642;42.658;23.350;2023-07-02T04:37:33;47777.06;;;-146.31;100.00
2036;BME280;23642;42.658;23.350;2023-07-02T04:40:02;47789.41;;;-146.31;100.00
2036;BME280;23642;42.658;23.350;2023-07-02T04:42:30;47801.78;;;-146.31;100.00
2036;BME280;23642;42.658;23.350;2023-07-02T04:45:03;47812.09;;;-146.31;100.00
2036;BME280;23642;42.658;23.350;2023-07-02T04:47:31;47805.91;;;-146.31;100.00
2036;BME280;23642;42.658;23.350;2023-07-02T04:50:05;47785.31;;;-146.31;100.00
2036;BME280;23642;42.658;23.350;2023-07-02T04:52:32;47733.78;;;-146.31;100.00
2036;BME280;23642;42.658;23.350;2023-07-02T04:55:00;47735.84;;;-146.31;100.00
2036;BME280;23642;42.658;23.350;2023-07-02T04:57:27;47756.44;;;-146.31;100.00
2036;BME280;23642;42.658;23.350;2023-07-02T04:59:54;47713.16;;;-146.31;100.00
2036;BME280;23642;42.658;23.350;2023-07-02T05:02:22;47750.25;;;-146.31;100.00
2036;BME280;23642;42.658;23.350;2023-07-02T05:04:59;47781.19;;;-146.31;100.00
2036;BME280;23642;42.658;23.350;2023-07-02T05:07:29;47816.22;;;-146.31;100.00
2036;BME280;23642;42.658;23.350;2023-07-02T05:09:58;47830.63;;;-146.31;100.00
2036;BME280;23642;42.658;23.350;2023-07-02T05:12:26;47797.66;;;-146.31;100.00
2036;BME280;23642;42.658;23.350;2023-07-02T05:14:55;47822.38;;;-146.31;100.00
2036;BME280;23642;42.658;23.350;2023-07-02T05:17:27;47968.72;;;-146.31;100.00
2036;BME280;23642;42.658;23.350;2023-07-02T05:20:09;48030.53;;;-146.31;100.00
2036;BME280;23642;42.658;23.350;2023-07-02T05:22:39;48042.91;;;-146.31;100.00
2036;BME280;23642;42.658;23.350;2023-07-02T05:25:14;47954.28;;;-146.31;100.00
2036;BME280;23642;42.658;23.350;2023-07-02T05:27:54;47979.03;;;-146.31;100.00
2036;BME280;23642;42.658;23.350;2023-07-02T05:30:33;48005.81;;;-146.31;100.00
2036;BME280;23642;42.658;23.350;2023-07-02T05:33:09;48026.41;;;-146.31;100.00
2036;BME280;23642;42.658;23.350;2023-07-02T05:35:40;47941.91;;;-146.31;100.00
2036;BME280;23642;42.658;23.350;2023-07-02T05:38:08;47995.50;;;-146.31;100.00
2036;BME280;23642;42.658;23.350;2023-07-02T05:40:35;48020.22;;;-146.31;100.00
2036;BME280;23642;42.658;23.350;2023-07-02T05:43:09;48016.13;;;-146.31;99.88
2036;BME280;23642;42.658;23.350;2023-07-02T05:45:36;48084.13;;;-146.31;98.44
2036;BME280;23642;42.658;23.350;2023-07-02T05:48:06;48164.50;;;-146.31;97.93
2036;BME280;23642;42.658;23.350;2023-07-02T05:50:43;48263.44;;;-146.31;96.62
2036;BME280;23642;42.658;23.350;2023-07-02T05:53:14;48323.19;;;-146.31;94.50
2036;BME280;23642;42.658;23.350;2023-07-02T05:55:46;48347.94;;;-146.31;95.58
2036;BME280;23642;42.658;23.350;2023-07-02T05:58:16;48415.94;;;-146.31;94.11
2036;BME280;23642;42.658;23.350;2023-07-02T06:00:50;48461.31;;;-146.31;93.90
2036;BME280;23642;42.658;23.350;2023-07-02T06:03:18;48504.59;;;-146.31;91.88
2036;BME280;23642;42.658;23.350;2023-07-02T06:05:52;48655.06;;;-146.31;87.94
2036;BME280;23642;42.658;23.350;2023-07-02T06:08:21;48774.63;;;-146.31;85.74
2036;BME280;23642;42.658;23.350;2023-07-02T06:10:49;48754.00;;;-146.31;82.63
2036;BME280;23642;42.658;23.350;2023-07-02T06:13:17;48941.59;;;-146.31;80.95
2036;BME280;23642;42.658;23.350;2023-07-02T06:15:50;49030.22;;;-146.31;80.50
2036;BME280;23642;42.658;23.350;2023-07-02T06:18:17;49162.19;;;-146.31;81.82
2036;BME280;23642;42.658;23.350;2023-07-02T06:21:01;49296.19;;;-146.31;83.50
2036;BME280;23642;42.658;23.350;2023-07-02T06:23:47;49294.13;;;-146.31;81.49
2036;BME280;23642;42.658;23.350;2023-07-02T06:26:16;49277.63;;;-146.31;82.21
2036;BME280;23642;42.658;23.350;2023-07-02T06:28:50;49397.22;;;-146.31;80.95
2036;BME280;23642;42.658;23.350;2023-07-02T06:31:20;49368.34;;;-146.31;81.48
2036;BME280;23642;42.658;23.350;2023-07-02T06:33:47;49325.03;;;-146.31;81.29
2036;BME280;23642;42.658;23.350;2023-07-02T06:37:13;49290.00;;;-146.31;80.70
2036;BME280;23642;42.658;23.350;2023-07-02T06:40:43;49327.09;;;-146.31;78.98
2036;BME280;23642;42.658;23.350;2023-07-02T06:46:46;49393.09;;;-146.31;77.35
2036;BME280;23642;42.658;23.350;2023-07-02T06:49:18;49343.59;;;-146.31;77.50
2036;BME280;23642;42.658;23.350;2023-07-02T06:55:11;49426.06;;;-146.31;78.65
2036;BME280;23642;42.658;23.350;2023-07-02T06:57:54;49483.81;;;-146.31;79.45
2036;BME280;23642;42.658;23.350;2023-07-02T07:00:26;49388.97;;;-146.31;80.89
2036;BME280;23642;42.658;23.350;2023-07-02T07:03:01;49469.38;;;-146.31;78.43
2036;BME280;23642;42.658;23.350;2023-07-02T07:05:37;49454.94;;;-146.31;77.97
2036;BME280;23642;42.658;23.350;2023-07-02T07:14:37;49465.25;;;-146.31;77.63
2036;BME280;23642;42.658;23.350;2023-07-02T07:17:07;49473.50;;;-146.31;75.84
2036;BME280;23642;42.658;23.350;2023-07-02T07:19:39;49477.63;;;-146.31;75.19
2036;BME280;23642;42.658;23.350;2023-07-02T07:22:06;49807.53;;;-146.31;78.69
2036;BME280;23642;42.658;23.350;2023-07-02T07:25:06;49648.75;;;-146.31;80.57
2036;BME280;23642;42.658;23.350;2023-07-02T07:27:59;49710.59;;;-146.31;77.11
2036;BME280;23642;42.658;23.350;2023-07-02T07:30:34;49784.84;;;-146.31;78.47
2036;BME280;23642;42.658;23.350;2023-07-02T07:33:19;49652.88;;;-146.31;78.43
2036;BME280;23642;42.658;23.350;2023-07-02T07:36:25;49537.41;;;-146.31;78.70
2036;BME280;23642;42.658;23.350;2023-07-02T07:39:25;49727.09;;;-146.31;78.23
2036;BME280;23642;42.658;23.350;2023-07-02T07:42:10;49562.16;;;-146.31;78.96
2036;BME280;23642;42.658;23.350;2023-07-02T07:44:45;49615.75;;;-146.31;78.40
2036;BME280;23642;42.658;23.350;2023-07-02T07:47:37;49615.75;;;-146.31;77.15
2036;BME280;23642;42.658;23.350;2023-07-02T07:50:13;49500.28;;;-146.31;76.77
2036;BME280;23642;42.658;23.350;2023-07-02T07:52:43;49537.41;;;-146.31;79.18
2036;BME280;23642;42.658;23.350;2023-07-02T07:55:11;49508.53;;;-146.31;76.49
2036;BME280;23642;42.658;23.350;2023-07-02T07:57:41;49477.63;;;-146.31;74.75
2036;BME280;23642;42.658;23.350;2023-07-02T08:00:16;49490.00;;;-146.31;73.18
2036;BME280;23642;42.658;23.350;2023-07-02T08:02:50;49506.47;;;-146.31;74.42
2036;BME280;23642;42.658;23.350;2023-07-02T08:05:50;49553.91;;;-146.31;74.20
2036;BME280;23642;42.658;23.350;2023-07-02T08:08:25;49617.81;;;-146.31;72.82
2036;BME280;23642;42.658;23.350;2023-07-02T08:11:03;49541.53;;;-146.31;72.95
2036;BME280;23642;42.658;23.350;2023-07-02T08:13:35;49685.88;;;-146.31;73.84
2036;BME280;23642;42.658;23.350;2023-07-02T08:16:12;49694.13;;;-146.31;71.92
2036;BME280;23642;42.658;23.350;2023-07-02T08:18:41;49527.09;;;-146.31;70.88
2036;BME280;23642;42.658;23.350;2023-07-02T08:21:14;49727.09;;;-146.31;69.94
2036;BME280;23642;42.658;23.350;2023-07-02T08:23:42;49669.38;;;-146.31;71.97
2036;BME280;23642;42.658;23.350;2023-07-02T08:26:10;49791.03;;;-146.31;72.61
2036;BME280;23642;42.658;23.350;2023-07-02T08:28:42;49673.50;;;-146.31;71.01
2036;BME280;23642;42.658;23.350;2023-07-02T08:31:14;49657.00;;;-146.31;72.67
2036;BME280;23642;42.658;23.350;2023-07-02T08:33:56;49652.88;;;-146.31;72.48
2036;BME280;23642;42.658;23.350;2023-07-02T08:36:28;49607.50;;;-146.31;69.65
2036;BME280;23642;42.658;23.350;2023-07-02T08:38:55;49619.88;;;-146.31;70.20
2036;BME280;23642;42.658;23.350;2023-07-02T08:41:42;49654.94;;;-146.31;71.55
2036;BME280;23642;42.658;23.350;2023-07-02T08:44:16;49593.06;;;-146.31;72.17
2036;BME280;23642;42.658;23.350;2023-07-02T08:46:58;49650.81;;;-146.31;68.49
2036;BME280;23642;42.658;23.350;2023-07-02T08:52:18;49702.34;;;-146.31;72.92
2036;BME280;23642;42.658;23.350;2023-07-02T08:54:49;49586.91;;;-146.31;70.82
2036;BME280;23642;42.658;23.350;2023-07-02T08:58:14;49644.63;;;-146.31;70.33
2036;BME280;23642;42.658;23.350;2023-07-02T09:01:12;49725.03;;;-146.31;69.29
2036;BME280;23642;42.658;23.350;2023-07-02T09:04:06;49706.47;;;-146.31;69.88
2036;BME280;23642;42.658;23.350;2023-07-02T09:06:43;49751.84;;;-146.31;68.07
2036;BME280;23642;42.658;23.350;2023-07-02T09:09:33;50044.66;;;-146.31;66.43
2036;BME280;23642;42.658;23.350;2023-07-02T09:12:04;50164.25;;;-146.31;67.88
2036;BME280;23642;42.658;23.350;2023-07-02T09:14:40;50009.59;;;-146.31;66.57
2036;BME280;23642;42.658;23.350;2023-07-02T09:17:37;49918.88;;;-146.31;67.83
2036;BME280;23642;42.658;23.350;2023-07-02T09:20:22;49749.78;;;-146.31;66.12
2036;BME280;23642;42.658;23.350;2023-07-02T09:23:06;49749.78;;;-146.31;56.76
2036;BME280;23642;42.658;23.350;2023-07-02T09:25:41;49908.56;;;-146.31;57.15
2036;BME280;23642;42.658;23.350;2023-07-02T09:28:15;49894.13;;;-146.31;56.40
2036;BME280;23642;42.658;23.350;2023-07-02T09:30:57;49824.03;;;-146.31;54.77
2036;BME280;23642;42.658;23.350;2023-07-02T09:33:47;49782.78;;;-146.31;56.65
2036;BME280;23642;42.658;23.350;2023-07-02T09:36:27;49925.06;;;-146.31;57.16
2036;BME280;23642;42.658;23.350;2023-07-02T09:39:02;49937.44;;;-146.31;56.84
2036;BME280;23642;42.658;23.350;2023-07-02T09:41:35;49951.88;;;-146.31;56.29
2036;BME280;23642;42.658;23.350;2023-07-02T09:44:05;49908.56;;;-146.31;56.54
2036;BME280;23642;42.658;23.350;2023-07-02T09:46:36;49599.25;;;-146.31;56.19
2036;BME280;23642;42.658;23.350;2023-07-02T09:49:14;49343.59;;;-146.31;53.36
2036;BME280;23642;42.658;23.350;2023-07-02T09:51:55;49572.47;;;-146.31;53.34
2036;BME280;23642;42.658;23.350;2023-07-02T09:57:53;50094.16;;;-146.31;54.18
2036;BME280;23642;42.658;23.350;2023-07-02T10:00:21;50195.19;;;-146.31;55.44
2036;BME280;23642;42.658;23.350;2023-07-02T10:02:53;50378.75;;;-146.31;55.74
2036;BME280;23642;42.658;23.350;2023-07-02T10:05:35;50372.56;;;-146.31;56.33
2036;BME280;23642;42.658;23.350;2023-07-02T10:08:16;50224.06;;;-146.31;56.95
2036;BME280;23642;42.658;23.350;2023-07-02T10:11:32;50178.69;;;-146.31;60.33
2036;BME280;23642;42.658;23.350;2023-07-02T10:14:03;50255.00;;;-146.31;56.03
2036;BME280;23642;42.658;23.350;2023-07-02T10:16:47;50285.94;;;-146.31;54.98
2036;BME280;23642;42.658;23.350;2023-07-02T10:19:52;50415.88;;;-146.31;57.64
2036;BME280;23642;42.658;23.350;2023-07-02T10:22:45;50473.63;;;-146.31;57.54
2036;BME280;23642;42.658;23.350;2023-07-02T10:25:28;50382.88;;;-146.31;57.66
2036;BME280;23642;42.658;23.350;2023-07-02T10:28:14;50473.63;;;-146.31;nan
2036;BME280;23642;42.658;23.350;2023-07-02T10:30:44;50560.25;;;-146.31;57.29
2036;BME280;23642;42.658;23.350;2023-07-02T10:33:14;50613.88;;;-146.31;57.97
2036;BME280;23642;42.658;23.350;2023-07-02T10:35:47;50613.88;;;-146.31;58.01
2036;BME280;23642;42.658;23.350;2023-07-02T10:38:19;50665.44;;;-146.31;56.57
2036;BME280;23642;42.658;23.350;2023-07-02T10:40:54;50811.88;;;-146.31;57.08
2036;BME280;23642;42.658;23.350;2023-07-02T10:43:26;50675.75;;;-146.31;57.45
2036;BME280;23642;42.658;23.350;2023-07-02T10:45:57;50783.00;;;-146.31;56.16
2036;BME280;23642;42.658;23.350;2023-07-02T10:48:25;50849.00;;;-146.31;55.86
2036;BME280;23642;42.658;23.350;2023-07-02T10:51:15;50667.50;;;-146.31;54.83
2036;BME280;23642;42.658;23.350;2023-07-02T10:53:58;50424.13;;;-146.31;53.96
2036;BME280;23642;42.658;23.350;2023-07-02T10:56:29;50382.88;;;-146.31;50.71
2036;BME280;23642;42.658;23.350;2023-07-02T10:59:12;50248.81;;;-146.31;50.71
2036;BME280;23642;42.658;23.350;2023-07-02T11:01:39;50358.13;;;-146.31;50.75
2036;BME280;23642;42.658;23.350;2023-07-02T11:04:11;50226.13;;;-146.31;50.23
2036;BME280;23642;42.658;23.350;2023-07-02T11:06:50;50599.44;;;-146.31;47.46
2036;BME280;23642;42.658;23.350;2023-07-02T11:09:22;50566.44;;;-146.31;47.71
2036;BME280;23642;42.658;23.350;2023-07-02T11:11:59;50801.56;;;-146.31;48.42
2036;BME280;23642;42.658;23.350;2023-07-02T11:14:30;50690.19;;;-146.31;47.57
2036;BME280;23642;42.658;23.350;2023-07-02T11:17:08;50585.00;;;-146.31;46.30
2036;BME280;23642;42.658;23.350;2023-07-02T11:19:50;50756.19;;;-146.31;47.11
2036;BME280;23642;42.658;23.350;2023-07-02T11:22:35;50636.56;;;-146.31;47.66
2036;BME280;23642;42.658;23.350;2023-07-02T11:25:12;50547.88;;;-146.31;48.16
2036;BME280;23642;42.658;23.350;2023-07-02T11:27:44;50547.88;;;-146.31;47.10
2036;BME280;23642;42.658;23.350;2023-07-02T11:30:12;50455.06;;;-146.31;45.95
2036;BME280;23642;42.658;23.350;2023-07-02T11:32:49;50399.38;;;-146.31;45.66
2036;BME280;23642;42.658;23.350;2023-07-02T11:35:17;50696.38;;;-146.31;45.72
2036;BME280;23642;42.658;23.350;2023-07-02T11:37:55;50896.44;;;-146.31;47.22
2036;BME280;23642;42.658;23.350;2023-07-02T11:40:34;51044.94;;;-146.31;47.74
2036;BME280;23642;42.658;23.350;2023-07-02T11:43:14;51339.94;;;-146.31;50.41
2036;BME280;23642;42.658;23.350;2023-07-02T11:46:04;51469.91;;;-146.31;52.85
2036;BME280;23642;42.658;23.350;2023-07-02T11:48:33;51733.97;;;-146.31;54.18
2036;BME280;23642;42.658;23.350;2023-07-02T11:51:02;51715.41;;;-146.31;55.24
2036;BME280;23642;42.658;23.350;2023-07-02T11:53:50;51746.38;;;-146.31;55.53
2036;BME280;23642;42.658;23.350;2023-07-02T11:56:23;51604.00;;;-146.31;55.03
2036;BME280;23642;42.658;23.350;2023-07-02T11:59:05;51721.59;;;-146.31;55.48
2036;BME280;23642;42.658;23.350;2023-07-02T12:01:43;51744.31;;;-146.31;54.83
2036;BME280;23642;42.658;23.350;2023-07-02T12:04:13;51781.44;;;-146.31;55.11
2036;BME280;23642;42.658;23.350;2023-07-02T12:06:43;51839.22;;;-146.31;54.12
2036;BME280;23642;42.658;23.350;2023-07-02T12:09:24;51977.44;;;-146.31;52.08
2036;BME280;23642;42.658;23.350;2023-07-02T12:12:11;51903.16;;;-146.31;51.49
2036;BME280;23642;42.658;23.350;2023-07-02T12:14:49;51880.47;;;-146.31;50.87
2036;BME280;23642;42.658;23.350;2023-07-02T12:17:22;51845.41;;;-146.31;51.58
2036;BME280;23642;42.658;23.350;2023-07-02T12:19:51;51828.88;;;-146.31;51.21
2036;BME280;23642;42.658;23.350;2023-07-02T12:22:24;52012.53;;;-146.31;52.35
2036;BME280;23642;42.658;23.350;2023-07-02T12:24:51;52033.16;;;-146.31;53.54
2036;BME280;23642;42.658;23.350;2023-07-02T12:27:25;52029.03;;;-146.31;54.66
2036;BME280;23642;42.658;23.350;2023-07-02T12:30:05;52022.84;;;-146.31;57.73
2036;BME280;23642;42.658;23.350;2023-07-02T12:32:34;52150.78;;;-146.31;62.12
2036;BME280;23642;42.658;23.350;2023-07-02T12:35:04;52082.69;;;-146.31;64.03
2036;BME280;23642;42.658;23.350;2023-07-02T12:37:34;51991.88;;;-146.31;66.15
2036;BME280;23642;42.658;23.350;2023-07-02T12:40:01;51940.31;;;-146.31;66.68
2036;BME280;23642;42.658;23.350;2023-07-02T12:42:34;51797.94;;;-146.31;67.93
2036;BME280;23642;42.658;23.350;2023-07-02T12:45:09;51738.09;;;-146.31;66.95
2036;BME280;23642;42.658;23.350;2023-07-02T12:47:40;51585.44;;;-146.31;65.79
2036;BME280;23642;42.658;23.350;2023-07-02T12:50:08;51451.34;;;-146.31;64.55
2036;BME280;23642;42.658;23.350;2023-07-02T12:52:39;51290.44;;;-146.31;65.79
2036;BME280;23642;42.658;23.350;2023-07-02T12:55:06;51342.00;;;-146.31;63.98
2036;BME280;23642;42.658;23.350;2023-07-02T12:57:35;51302.81;;;-146.31;63.14
2036;BME280;23642;42.658;23.350;2023-07-02T13:00:03;51245.03;;;-146.31;63.82
2036;BME280;23642;42.658;23.350;2023-07-02T13:02:31;51339.94;;;-146.31;63.76
2036;BME280;23642;42.658;23.350;2023-07-02T13:04:59;51240.91;;;-146.31;62.80
2036;BME280;23642;42.658;23.350;2023-07-02T13:07:32;51086.22;;;-146.31;62.22
2036;BME280;23642;42.658;23.350;2023-07-02T13:10:03;51098.59;;;-146.31;60.11
2036;BME280;23642;42.658;23.350;2023-07-02T13:12:33;51189.34;;;-146.31;59.62
2036;BME280;23642;42.658;23.350;2023-07-02T13:15:04;51141.91;;;-146.31;58.82
2036;BME280;23642;42.658;23.350;2023-07-02T13:17:34;51098.59;;;-146.31;57.66
2036;BME280;23642;42.658;23.350;2023-07-02T13:20:07;51100.66;;;-146.31;57.86
2036;BME280;23642;42.658;23.350;2023-07-02T13:22:36;50968.63;;;-146.31;53.53
2036;BME280;23642;42.658;23.350;2023-07-02T13:25:04;50820.13;;;-146.31;52.62
2036;BME280;23642;42.658;23.350;2023-07-02T13:27:33;51038.75;;;-146.31;53.91
2036;BME280;23642;42.658;23.350;2023-07-02T13:30:06;51438.97;;;-146.31;52.39
2036;BME280;23642;42.658;23.350;2023-07-02T13:32:33;51368.81;;;-146.31;56.73